Flight Track Log - Related Links

Times and Time Zones

All times are in EDT time to prevent confusion due to time zone crossing. See the SWA1718 flight status page for this flight to view local times or setup timezone preferences in your user account.

Time Position Orientation Groundspeed Altitude Reporting Facility
EDT Latitude Longitude Course Direction KTS MPH feet Rate Location/Type
Tue 03:23:51 PM 32.8000 -96.8000 307° West 214 246 3,000  Level Dallas / Fort Worth TRACON
Tue 03:24:51 PM 32.7500 -96.7500 140° Southeast 246 283 5,900 2,800 Climbing Dallas / Fort Worth TRACON
Tue 03:25:51 PM 32.7000 -96.7333 164° South 270 311 8,600 1,952 Climbing Dallas / Fort Worth TRACON
Tue 03:26:57 PM 32.6167 -96.8000 214° Southwest 323 372 10,000 722 Climbing Dallas / Fort Worth TRACON
Tue 03:27:39 PM 32.5628 -96.8564 221° Southwest 368 423 9,900 1,471 Descending Fort Worth Center
Tue 03:28:39 PM 32.5736 -96.9550 277° West 381 438 12,500 2,300 Climbing Fort Worth Center
Tue 03:29:00 PM 33.1350 -97.4193 307° West  Level FlightAware Approximate
Tue 03:29:39 PM 32.6575 -97.0186 327° Northwest 376 433 14,500  Level Fort Worth Center
Tue 03:30:39 PM 32.7350 -97.1122 315° West 367 422 17,300 2,250 Climbing Fort Worth Center
Tue 03:31:39 PM 32.7894 -97.2058 305° West 372 428 19,000 1,750 Climbing Fort Worth Center
Tue 03:32:39 PM 32.8564 -97.3219 304° West 389 448 20,800 1,700 Climbing Fort Worth Center
Tue 03:33:39 PM 32.9106 -97.4183 304° West 389 448 22,400 1,550 Climbing Fort Worth Center
Tue 03:34:39 PM 32.9794 -97.5372 305° West 397 457 23,900 1,300 Climbing Fort Worth Center
Tue 03:35:39 PM 33.0419 -97.6489 304° West 409 471 25,000 1,050 Climbing Fort Worth Center
Tue 03:36:39 PM 33.1022 -97.7656 302° West 409 471 26,000 950 Climbing Fort Worth Center
Tue 03:37:39 PM 33.1414 -97.8947 290° West 404 465 26,900 1,050 Climbing Fort Worth Center
Tue 03:38:39 PM 33.1847 -98.0242 292° West 414 476 28,100 1,200 Climbing Fort Worth Center
Tue 03:39:39 PM 33.2444 -98.1436 301° West 414 476 29,300 1,200 Climbing Fort Worth Center
Tue 03:40:39 PM 33.3044 -98.2411 306° West 420 483 30,500 1,150 Climbing Fort Worth Center
Tue 03:41:39 PM 33.3767 -98.3686 304° West 413 475 31,600 1,000 Climbing Fort Worth Center
Tue 03:42:39 PM 33.4364 -98.4689 306° West 413 475 32,500 950 Climbing Fort Worth Center
Tue 03:43:39 PM 33.5022 -98.5817 305° West 421 484 33,500 750 Climbing Fort Worth Center
Tue 03:44:39 PM 33.5719 -98.7000 305° West 426 490 34,000 250 Climbing Fort Worth Center
Tue 03:45:39 PM 33.6375 -98.8181 304° West 426 490 34,000  Level Fort Worth Center
Tue 03:46:39 PM 33.7028 -98.9314 305° West 426 490 34,000  Level Fort Worth Center
Tue 03:47:39 PM 33.7828 -99.0578 307° West 426 490 34,000  Level Fort Worth Center
Tue 03:48:39 PM 33.8375 -99.1614 302° West 421 484 34,000  Level Fort Worth Center
Tue 03:49:39 PM 33.9006 -99.2753 304° West 421 484 34,000  Level Fort Worth Center
Tue 03:50:39 PM 33.9697 -99.3944 305° West 421 484 34,000  Level Fort Worth Center
Tue 03:51:39 PM 34.0347 -99.5089 304° West 421 484 34,000  Level Fort Worth Center
Tue 03:52:39 PM 34.1017 -99.6258 305° West 421 484 34,000  Level Fort Worth Center
Tue 03:54:49 PM 34.2394 -99.8728 304° West 423 487 34,000  Level Albuquerque Center
Tue 03:55:50 PM 34.3044 -99.9897 304° West 420 483 34,000 -49 Level Albuquerque Center
Tue 03:56:52 PM 34.3833 -100.1303 304° West 420 483 33,900 -1,500 Descending Albuquerque Center
Tue 03:57:54 PM 34.4467 -100.2453 304° West 415 478 30,900 -2,780 Descending Albuquerque Center
Tue 03:58:55 PM 34.5092 -100.3603 303° West 411 473 28,200 -2,488 Descending Albuquerque Center
Tue 03:59:57 PM 34.5708 -100.4689 305° West 399 459 25,800 -2,032 Descending Albuquerque Center
Tue 04:00:59 PM 34.6292 -100.5761 303° West 387 445 24,000 -1,500 Descending Albuquerque Center
Tue 04:02:01 PM 34.6867 -100.6808 304° West 377 434 22,700 -2,195 Descending Albuquerque Center
Tue 04:03:02 PM 34.7567 -100.8092 304° West 379 436 19,500 -2,878 Descending Albuquerque Center
Tue 04:04:04 PM 34.8142 -100.9139 304° West 375 432 16,800 -2,516 Descending Albuquerque Center
Tue 04:05:06 PM 34.8694 -101.0186 303° West 371 427 14,300 -2,195 Descending Albuquerque Center
Tue 04:06:07 PM 34.9061 -101.1275 292° West 353 406 12,300 -1,902 Descending Albuquerque Center
Tue 04:07:09 PM 34.9436 -101.2300 294° West 336 387 10,400 -1,694 Descending Albuquerque Center
Tue 04:08:11 PM 34.9781 -101.3278 293° West 325 374 8,800 -1,597 Descending Albuquerque Center
Tue 04:09:13 PM 35.0106 -101.4194 293° West 310 357 7,100 -1,366 Descending Albuquerque Center
Tue 04:10:14 PM 35.0367 -101.5150 288° West 301 346 6,000 -537 Descending Albuquerque Center
Tue 04:11:16 PM 35.0500 -101.6164 279° West 265 305 6,000  Level Albuquerque Center
Tue 04:12:18 PM 35.0672 -101.6922 286° West 245 282 6,000 -484 Level Albuquerque Center
Tue 04:13:20 PM 35.0942 -101.7633 295° West 235 270 5,000 -488 Descending Albuquerque Center
Tue 04:14:21 PM 35.1489 -101.7697 355° North 209 241 5,000 -488 Level Albuquerque Center
Tue 04:15:23 PM 35.1908 -101.7508 20° North 175 201 4,000 -677 Descending Albuquerque Center
Tue 04:16:25 PM 35.2186 -101.7161 46° Northeast 155 178 3,600 -387 Descending Albuquerque Center

Login

Don't have an account? Register now (free) for customized features, flight alerts, and more!